sensor_id;sensor_type;location;lat;lon;timestamp;P1;durP1;ratioP1;P2;durP2;ratioP2
25982;SDS011;13773;48.868;10.730;2022-08-07T00:01:44;4.10;;;1.30;;
25982;SDS011;13773;48.868;10.730;2022-08-07T00:04:10;1.33;;;1.13;;
25982;SDS011;13773;48.868;10.730;2022-08-07T00:06:36;2.00;;;1.30;;
25982;SDS011;13773;48.868;10.730;2022-08-07T00:09:02;1.93;;;1.40;;
25982;SDS011;13773;48.868;10.730;2022-08-07T00:11:28;1.60;;;1.50;;
25982;SDS011;13773;48.868;10.730;2022-08-07T00:13:54;3.13;;;1.57;;
25982;SDS011;13773;48.868;10.730;2022-08-07T00:16:20;2.77;;;1.50;;
25982;SDS011;13773;48.868;10.730;2022-08-07T00:18:45;1.70;;;1.60;;
25982;SDS011;13773;48.868;10.730;2022-08-07T00:21:11;1.60;;;1.20;;
25982;SDS011;13773;48.868;10.730;2022-08-07T00:23:38;2.00;;;1.57;;
25982;SDS011;13773;48.868;10.730;2022-08-07T00:26:05;2.50;;;1.50;;
25982;SDS011;13773;48.868;10.730;2022-08-07T00:28:32;2.63;;;1.70;;
25982;SDS011;13773;48.868;10.730;2022-08-07T00:30:58;2.20;;;1.73;;
25982;SDS011;13773;48.868;10.730;2022-08-07T00:33:24;2.83;;;1.60;;
25982;SDS011;13773;48.868;10.730;2022-08-07T00:35:55;1.60;;;1.50;;
25982;SDS011;13773;48.868;10.730;2022-08-07T00:38:21;1.60;;;1.50;;
25982;SDS011;13773;48.868;10.730;2022-08-07T00:40:48;2.67;;;1.80;;
25982;SDS011;13773;48.868;10.730;2022-08-07T00:43:14;2.70;;;1.70;;
25982;SDS011;13773;48.868;10.730;2022-08-07T00:45:40;3.57;;;1.73;;
25982;SDS011;13773;48.868;10.730;2022-08-07T00:48:07;4.93;;;1.80;;
25982;SDS011;13773;48.868;10.730;2022-08-07T00:50:34;5.53;;;2.10;;
25982;SDS011;13773;48.868;10.730;2022-08-07T00:53:00;2.33;;;2.00;;
25982;SDS011;13773;48.868;10.730;2022-08-07T00:55:25;2.10;;;1.90;;
25982;SDS011;13773;48.868;10.730;2022-08-07T00:57:53;2.10;;;1.90;;
25982;SDS011;13773;48.868;10.730;2022-08-07T01:00:19;2.60;;;2.40;;
25982;SDS011;13773;48.868;10.730;2022-08-07T01:02:45;2.57;;;2.37;;
25982;SDS011;13773;48.868;10.730;2022-08-07T01:05:11;3.33;;;2.30;;
25982;SDS011;13773;48.868;10.730;2022-08-07T01:07:37;4.40;;;2.87;;
25982;SDS011;13773;48.868;10.730;2022-08-07T01:10:05;2.60;;;2.40;;
25982;SDS011;13773;48.868;10.730;2022-08-07T01:12:32;3.67;;;2.90;;
25982;SDS011;13773;48.868;10.730;2022-08-07T01:14:58;3.90;;;3.20;;
25982;SDS011;13773;48.868;10.730;2022-08-07T01:17:26;3.60;;;3.30;;
25982;SDS011;13773;48.868;10.730;2022-08-07T01:19:52;3.33;;;3.03;;
25982;SDS011;13773;48.868;10.730;2022-08-07T01:22:20;3.30;;;3.00;;
25982;SDS011;13773;48.868;10.730;2022-08-07T01:24:47;4.60;;;4.20;;
25982;SDS011;13773;48.868;10.730;2022-08-07T01:27:13;5.27;;;4.70;;
25982;SDS011;13773;48.868;10.730;2022-08-07T01:29:39;4.73;;;4.17;;
25982;SDS011;13773;48.868;10.730;2022-08-07T01:32:05;5.53;;;3.67;;
25982;SDS011;13773;48.868;10.730;2022-08-07T01:34:31;3.90;;;3.40;;
25982;SDS011;13773;48.868;10.730;2022-08-07T01:36:58;3.73;;;3.43;;
25982;SDS011;13773;48.868;10.730;2022-08-07T01:39:25;4.43;;;4.03;;
25982;SDS011;13773;48.868;10.730;2022-08-07T01:41:52;3.87;;;3.47;;
25982;SDS011;13773;48.868;10.730;2022-08-07T01:44:18;3.40;;;3.13;;
25982;SDS011;13773;48.868;10.730;2022-08-07T01:46:44;3.43;;;3.10;;
25982;SDS011;13773;48.868;10.730;2022-08-07T01:49:10;3.60;;;3.30;;
25982;SDS011;13773;48.868;10.730;2022-08-07T01:51:36;3.40;;;3.20;;
25982;SDS011;13773;48.868;10.730;2022-08-07T01:54:05;3.40;;;3.10;;
25982;SDS011;13773;48.868;10.730;2022-08-07T01:56:50;3.47;;;3.10;;
25982;SDS011;13773;48.868;10.730;2022-08-07T01:59:32;3.10;;;2.80;;
25982;SDS011;13773;48.868;10.730;2022-08-07T02:02:32;4.40;;;2.60;;
25982;SDS011;13773;48.868;10.730;2022-08-07T02:05:06;2.70;;;2.50;;
25982;SDS011;13773;48.868;10.730;2022-08-07T02:07:37;2.73;;;2.53;;
25982;SDS011;13773;48.868;10.730;2022-08-07T02:10:07;3.47;;;2.87;;
25982;SDS011;13773;48.868;10.730;2022-08-07T02:12:35;2.70;;;2.50;;
25982;SDS011;13773;48.868;10.730;2022-08-07T02:15:03;2.93;;;2.50;;
25982;SDS011;13773;48.868;10.730;2022-08-07T02:17:31;2.83;;;2.63;;
25982;SDS011;13773;48.868;10.730;2022-08-07T02:19:57;2.47;;;2.37;;
25982;SDS011;13773;48.868;10.730;2022-08-07T02:22:25;2.43;;;2.23;;
25982;SDS011;13773;48.868;10.730;2022-08-07T02:24:53;2.60;;;2.40;;
25982;SDS011;13773;48.868;10.730;2022-08-07T02:27:20;2.73;;;2.27;;
25982;SDS011;13773;48.868;10.730;2022-08-07T02:29:47;3.10;;;2.53;;
25982;SDS011;13773;48.868;10.730;2022-08-07T02:32:20;3.00;;;2.70;;
25982;SDS011;13773;48.868;10.730;2022-08-07T02:34:46;2.57;;;2.10;;
25982;SDS011;13773;48.868;10.730;2022-08-07T02:37:15;2.67;;;2.47;;
25982;SDS011;13773;48.868;10.730;2022-08-07T02:39:44;2.50;;;2.30;;
25982;SDS011;13773;48.868;10.730;2022-08-07T02:42:11;3.70;;;2.73;;
25982;SDS011;13773;48.868;10.730;2022-08-07T02:44:40;2.57;;;2.40;;
25982;SDS011;13773;48.868;10.730;2022-08-07T02:47:07;2.63;;;2.33;;
25982;SDS011;13773;48.868;10.730;2022-08-07T02:49:34;3.13;;;2.13;;
25982;SDS011;13773;48.868;10.730;2022-08-07T02:52:00;5.63;;;2.63;;
25982;SDS011;13773;48.868;10.730;2022-08-07T02:54:28;2.60;;;2.40;;
25982;SDS011;13773;48.868;10.730;2022-08-07T02:56:57;2.57;;;2.37;;
25982;SDS011;13773;48.868;10.730;2022-08-07T02:59:26;4.37;;;2.30;;
25982;SDS011;13773;48.868;10.730;2022-08-07T03:01:53;3.47;;;2.87;;
25982;SDS011;13773;48.868;10.730;2022-08-07T03:04:22;3.13;;;2.83;;
25982;SDS011;13773;48.868;10.730;2022-08-07T03:06:48;4.37;;;2.60;;
25982;SDS011;13773;48.868;10.730;2022-08-07T03:09:16;2.90;;;2.20;;
25982;SDS011;13773;48.868;10.730;2022-08-07T03:11:44;2.57;;;2.17;;
25982;SDS011;13773;48.868;10.730;2022-08-07T03:14:10;2.50;;;2.20;;
25982;SDS011;13773;48.868;10.730;2022-08-07T03:16:37;2.57;;;2.30;;
25982;SDS011;13773;48.868;10.730;2022-08-07T03:19:03;3.03;;;2.40;;
25982;SDS011;13773;48.868;10.730;2022-08-07T03:21:29;2.50;;;2.30;;
25982;SDS011;13773;48.868;10.730;2022-08-07T03:23:55;2.57;;;2.37;;
25982;SDS011;13773;48.868;10.730;2022-08-07T03:26:23;2.90;;;2.50;;
25982;SDS011;13773;48.868;10.730;2022-08-07T03:28:52;3.00;;;2.80;;
25982;SDS011;13773;48.868;10.730;2022-08-07T03:31:20;2.67;;;2.47;;
25982;SDS011;13773;48.868;10.730;2022-08-07T03:33:48;4.07;;;2.70;;
25982;SDS011;13773;48.868;10.730;2022-08-07T03:36:17;3.47;;;2.50;;
25982;SDS011;13773;48.868;10.730;2022-08-07T03:38:45;3.53;;;2.70;;
25982;SDS011;13773;48.868;10.730;2022-08-07T03:41:13;3.10;;;2.90;;
25982;SDS011;13773;48.868;10.730;2022-08-07T03:43:40;3.27;;;2.80;;
25982;SDS011;13773;48.868;10.730;2022-08-07T03:46:06;3.30;;;3.00;;
25982;SDS011;13773;48.868;10.730;2022-08-07T03:48:32;3.33;;;3.07;;
25982;SDS011;13773;48.868;10.730;2022-08-07T03:50:59;2.70;;;2.50;;
25982;SDS011;13773;48.868;10.730;2022-08-07T03:53:26;3.43;;;2.80;;
25982;SDS011;13773;48.868;10.730;2022-08-07T03:55:52;3.20;;;2.90;;
25982;SDS011;13773;48.868;10.730;2022-08-07T03:58:21;2.90;;;2.70;;
25982;SDS011;13773;48.868;10.730;2022-08-07T04:00:48;2.83;;;2.63;;
25982;SDS011;13773;48.868;10.730;2022-08-07T04:03:16;2.77;;;2.57;;
25982;SDS011;13773;48.868;10.730;2022-08-07T04:05:43;3.20;;;2.60;;
25982;SDS011;13773;48.868;10.730;2022-08-07T04:08:09;2.70;;;2.50;;
25982;SDS011;13773;48.868;10.730;2022-08-07T04:10:36;2.60;;;2.40;;
25982;SDS011;13773;48.868;10.730;2022-08-07T04:13:03;3.33;;;2.60;;
25982;SDS011;13773;48.868;10.730;2022-08-07T04:15:31;3.00;;;2.80;;
25982;SDS011;13773;48.868;10.730;2022-08-07T04:17:58;3.00;;;2.70;;
25982;SDS011;13773;48.868;10.730;2022-08-07T04:20:25;3.87;;;3.17;;
25982;SDS011;13773;48.868;10.730;2022-08-07T04:22:51;3.83;;;3.20;;
25982;SDS011;13773;48.868;10.730;2022-08-07T04:25:18;3.37;;;3.07;;
25982;SDS011;13773;48.868;10.730;2022-08-07T04:27:46;5.17;;;3.43;;
25982;SDS011;13773;48.868;10.730;2022-08-07T04:30:12;3.50;;;2.77;;
25982;SDS011;13773;48.868;10.730;2022-08-07T04:32:40;2.93;;;2.67;;
25982;SDS011;13773;48.868;10.730;2022-08-07T04:35:06;3.23;;;2.70;;
25982;SDS011;13773;48.868;10.730;2022-08-07T04:37:33;3.10;;;2.77;;
25982;SDS011;13773;48.868;10.730;2022-08-07T04:40:00;2.60;;;2.40;;
25982;SDS011;13773;48.868;10.730;2022-08-07T04:42:26;2.67;;;2.00;;
25982;SDS011;13773;48.868;10.730;2022-08-07T04:44:55;2.23;;;2.10;;
25982;SDS011;13773;48.868;10.730;2022-08-07T04:50:47;2.47;;;2.23;;
25982;SDS011;13773;48.868;10.730;2022-08-07T04:53:46;2.53;;;2.20;;
25982;SDS011;13773;48.868;10.730;2022-08-07T04:56:31;2.43;;;1.63;;
25982;SDS011;13773;48.868;10.730;2022-08-07T04:59:09;3.13;;;1.93;;
25982;SDS011;13773;48.868;10.730;2022-08-07T05:01:41;2.83;;;1.80;;
25982;SDS011;13773;48.868;10.730;2022-08-07T05:04:57;2.73;;;1.73;;
25982;SDS011;13773;48.868;10.730;2022-08-07T05:07:17;2.20;;;1.80;;
25982;SDS011;13773;48.868;10.730;2022-08-07T05:09:54;1.70;;;1.33;;
25982;SDS011;13773;48.868;10.730;2022-08-07T05:12:31;3.70;;;1.80;;
25982;SDS011;13773;48.868;10.730;2022-08-07T05:15:06;2.10;;;1.33;;
25982;SDS011;13773;48.868;10.730;2022-08-07T05:17:47;3.10;;;1.70;;
25982;SDS011;13773;48.868;10.730;2022-08-07T05:20:18;1.50;;;1.40;;
25982;SDS011;13773;48.868;10.730;2022-08-07T05:22:49;1.53;;;1.00;;
25982;SDS011;13773;48.868;10.730;2022-08-07T05:25:18;1.60;;;1.20;;
25982;SDS011;13773;48.868;10.730;2022-08-07T05:27:46;2.20;;;1.20;;
25982;SDS011;13773;48.868;10.730;2022-08-07T05:30:13;1.93;;;1.40;;
25982;SDS011;13773;48.868;10.730;2022-08-07T05:32:41;1.50;;;1.40;;
25982;SDS011;13773;48.868;10.730;2022-08-07T05:35:11;1.50;;;1.40;;
25982;SDS011;13773;48.868;10.730;2022-08-07T05:37:39;2.17;;;1.30;;
25982;SDS011;13773;48.868;10.730;2022-08-07T05:40:06;1.53;;;1.43;;
25982;SDS011;13773;48.868;10.730;2022-08-07T05:42:33;2.00;;;1.40;;
25982;SDS011;13773;48.868;10.730;2022-08-07T05:44:59;2.87;;;1.10;;
25982;SDS011;13773;48.868;10.730;2022-08-07T05:47:27;1.50;;;1.20;;
25982;SDS011;13773;48.868;10.730;2022-08-07T05:49:53;1.53;;;1.23;;
25982;SDS011;13773;48.868;10.730;2022-08-07T05:52:19;2.30;;;0.90;;
25982;SDS011;13773;48.868;10.730;2022-08-07T05:54:46;1.40;;;1.03;;
25982;SDS011;13773;48.868;10.730;2022-08-07T05:57:12;1.17;;;1.00;;
25982;SDS011;13773;48.868;10.730;2022-08-07T05:59:39;1.03;;;0.80;;
25982;SDS011;13773;48.868;10.730;2022-08-07T06:02:07;1.47;;;0.90;;
25982;SDS011;13773;48.868;10.730;2022-08-07T06:04:38;1.53;;;1.30;;
25982;SDS011;13773;48.868;10.730;2022-08-07T06:07:09;2.17;;;1.03;;
25982;SDS011;13773;48.868;10.730;2022-08-07T06:09:35;1.77;;;1.07;;
25982;SDS011;13773;48.868;10.730;2022-08-07T06:12:02;1.20;;;1.10;;
25982;SDS011;13773;48.868;10.730;2022-08-07T06:14:28;2.30;;;0.97;;
25982;SDS011;13773;48.868;10.730;2022-08-07T06:16:54;1.30;;;0.90;;
25982;SDS011;13773;48.868;10.730;2022-08-07T06:19:20;1.53;;;1.03;;
25982;SDS011;13773;48.868;10.730;2022-08-07T06:21:46;1.37;;;1.00;;
25982;SDS011;13773;48.868;10.730;2022-08-07T06:24:13;1.63;;;1.10;;
25982;SDS011;13773;48.868;10.730;2022-08-07T06:26:40;1.97;;;0.83;;
25982;SDS011;13773;48.868;10.730;2022-08-07T06:29:06;1.43;;;0.80;;
25982;SDS011;13773;48.868;10.730;2022-08-07T06:31:33;1.30;;;0.90;;
25982;SDS011;13773;48.868;10.730;2022-08-07T06:33:59;0.70;;;0.70;;
25982;SDS011;13773;48.868;10.730;2022-08-07T06:36:25;0.90;;;0.77;;
25982;SDS011;13773;48.868;10.730;2022-08-07T06:38:52;0.90;;;0.90;;
25982;SDS011;13773;48.868;10.730;2022-08-07T06:41:32;2.83;;;0.90;;
25982;SDS011;13773;48.868;10.730;2022-08-07T06:44:04;1.60;;;0.80;;
25982;SDS011;13773;48.868;10.730;2022-08-07T06:46:32;1.33;;;0.80;;
25982;SDS011;13773;48.868;10.730;2022-08-07T06:48:58;1.67;;;0.90;;
25982;SDS011;13773;48.868;10.730;2022-08-07T06:51:25;0.93;;;0.70;;
25982;SDS011;13773;48.868;10.730;2022-08-07T06:53:53;2.10;;;0.83;;
25982;SDS011;13773;48.868;10.730;2022-08-07T06:56:21;1.67;;;0.90;;
25982;SDS011;13773;48.868;10.730;2022-08-07T06:59:09;1.17;;;1.07;;
25982;SDS011;13773;48.868;10.730;2022-08-07T07:01:45;1.70;;;0.80;;
25982;SDS011;13773;48.868;10.730;2022-08-07T07:04:12;1.10;;;0.90;;
25982;SDS011;13773;48.868;10.730;2022-08-07T07:06:38;1.23;;;0.80;;
25982;SDS011;13773;48.868;10.730;2022-08-07T07:09:20;2.70;;;1.00;;
25982;SDS011;13773;48.868;10.730;2022-08-07T07:14:57;1.83;;;0.90;;
25982;SDS011;13773;48.868;10.730;2022-08-07T07:17:38;0.93;;;0.60;;
25982;SDS011;13773;48.868;10.730;2022-08-07T07:20:08;0.80;;;0.80;;
25982;SDS011;13773;48.868;10.730;2022-08-07T07:22:39;1.30;;;0.90;;
25982;SDS011;13773;48.868;10.730;2022-08-07T07:25:06;1.63;;;0.90;;
25982;SDS011;13773;48.868;10.730;2022-08-07T07:27:35;2.30;;;0.83;;
25982;SDS011;13773;48.868;10.730;2022-08-07T07:30:05;1.23;;;0.80;;
25982;SDS011;13773;48.868;10.730;2022-08-07T07:32:32;1.30;;;0.90;;
25982;SDS011;13773;48.868;10.730;2022-08-07T07:35:02;1.67;;;0.90;;
25982;SDS011;13773;48.868;10.730;2022-08-07T07:37:29;0.90;;;0.90;;
25982;SDS011;13773;48.868;10.730;2022-08-07T07:39:58;0.93;;;0.93;;
25982;SDS011;13773;48.868;10.730;2022-08-07T07:42:29;1.10;;;0.90;;
25982;SDS011;13773;48.868;10.730;2022-08-07T07:44:57;1.77;;;1.13;;
25982;SDS011;13773;48.868;10.730;2022-08-07T07:47:28;2.23;;;1.13;;
25982;SDS011;13773;48.868;10.730;2022-08-07T07:49:55;1.67;;;1.00;;
25982;SDS011;13773;48.868;10.730;2022-08-07T07:52:22;1.47;;;1.23;;
25982;SDS011;13773;48.868;10.730;2022-08-07T07:54:49;2.17;;;1.10;;
25982;SDS011;13773;48.868;10.730;2022-08-07T07:57:17;1.40;;;1.10;;
25982;SDS011;13773;48.868;10.730;2022-08-07T07:59:45;1.53;;;1.17;;
25982;SDS011;13773;48.868;10.730;2022-08-07T08:02:13;1.87;;;1.00;;
25982;SDS011;13773;48.868;10.730;2022-08-07T08:04:40;0.93;;;0.90;;
25982;SDS011;13773;48.868;10.730;2022-08-07T08:07:09;2.23;;;1.03;;
25982;SDS011;13773;48.868;10.730;2022-08-07T08:09:36;1.40;;;1.00;;
25982;SDS011;13773;48.868;10.730;2022-08-07T08:12:04;3.47;;;1.00;;
25982;SDS011;13773;48.868;10.730;2022-08-07T08:14:31;1.10;;;0.87;;
25982;SDS011;13773;48.868;10.730;2022-08-07T08:16:57;1.70;;;1.20;;
25982;SDS011;13773;48.868;10.730;2022-08-07T08:19:26;0.77;;;0.77;;
25982;SDS011;13773;48.868;10.730;2022-08-07T08:21:54;0.93;;;0.87;;
25982;SDS011;13773;48.868;10.730;2022-08-07T08:24:41;1.57;;;0.87;;
25982;SDS011;13773;48.868;10.730;2022-08-07T08:27:27;1.10;;;0.90;;
25982;SDS011;13773;48.868;10.730;2022-08-07T08:30:01;1.23;;;1.10;;
25982;SDS011;13773;48.868;10.730;2022-08-07T08:32:30;1.30;;;0.80;;
25982;SDS011;13773;48.868;10.730;2022-08-07T08:34:58;0.87;;;0.73;;
25982;SDS011;13773;48.868;10.730;2022-08-07T08:37:28;1.20;;;0.70;;
25982;SDS011;13773;48.868;10.730;2022-08-07T08:39:58;1.00;;;0.90;;
25982;SDS011;13773;48.868;10.730;2022-08-07T08:42:26;2.33;;;1.00;;
25982;SDS011;13773;48.868;10.730;2022-08-07T08:53:09;1.73;;;0.90;;
25982;SDS011;13773;48.868;10.730;2022-08-07T08:55:50;2.63;;;1.03;;
25982;SDS011;13773;48.868;10.730;2022-08-07T09:01:13;1.33;;;1.10;;
25982;SDS011;13773;48.868;10.730;2022-08-07T09:04:03;2.03;;;0.80;;
25982;SDS011;13773;48.868;10.730;2022-08-07T09:09:25;0.83;;;0.80;;
25982;SDS011;13773;48.868;10.730;2022-08-07T09:11:57;1.37;;;1.13;;
25982;SDS011;13773;48.868;10.730;2022-08-07T09:28:58;1.60;;;0.97;;
25982;SDS011;13773;48.868;10.730;2022-08-07T09:36:58;0.90;;;0.80;;
25982;SDS011;13773;48.868;10.730;2022-08-07T09:40:03;1.27;;;0.90;;
25982;SDS011;13773;48.868;10.730;2022-08-07T09:42:38;0.80;;;0.80;;
25982;SDS011;13773;48.868;10.730;2022-08-07T09:45:19;0.83;;;0.80;;
25982;SDS011;13773;48.868;10.730;2022-08-07T09:48:08;1.57;;;0.80;;
25982;SDS011;13773;48.868;10.730;2022-08-07T09:50:53;1.27;;;0.70;;
25982;SDS011;13773;48.868;10.730;2022-08-07T09:53:31;0.83;;;0.73;;
25982;SDS011;13773;48.868;10.730;2022-08-07T10:02:14;1.27;;;0.80;;
25982;SDS011;13773;48.868;10.730;2022-08-07T10:05:02;0.80;;;0.80;;
25982;SDS011;13773;48.868;10.730;2022-08-07T10:07:42;1.73;;;0.90;;
25982;SDS011;13773;48.868;10.730;2022-08-07T10:30:02;1.50;;;1.23;;
25982;SDS011;13773;48.868;10.730;2022-08-07T10:32:42;0.80;;;0.80;;
25982;SDS011;13773;48.868;10.730;2022-08-07T10:40:47;2.10;;;0.80;;
25982;SDS011;13773;48.868;10.730;2022-08-07T10:43:23;0.93;;;0.70;;
25982;SDS011;13773;48.868;10.730;2022-08-07T10:45:56;1.53;;;0.90;;
25982;SDS011;13773;48.868;10.730;2022-08-07T10:48:41;2.93;;;0.80;;
25982;SDS011;13773;48.868;10.730;2022-08-07T10:54:02;1.70;;;0.97;;
25982;SDS011;13773;48.868;10.730;2022-08-07T10:56:57;1.00;;;1.00;;
25982;SDS011;13773;48.868;10.730;2022-08-07T10:59:50;1.17;;;0.80;;
25982;SDS011;13773;48.868;10.730;2022-08-07T11:02:21;0.80;;;0.80;;
25982;SDS011;13773;48.868;10.730;2022-08-07T11:16:21;2.53;;;0.90;;
25982;SDS011;13773;48.868;10.730;2022-08-07T11:22:11;1.23;;;1.00;;
25982;SDS011;13773;48.868;10.730;2022-08-07T11:30:02;1.13;;;0.90;;
25982;SDS011;13773;48.868;10.730;2022-08-07T11:56:58;1.20;;;1.10;;
25982;SDS011;13773;48.868;10.730;2022-08-07T12:05:14;1.10;;;0.77;;
25982;SDS011;13773;48.868;10.730;2022-08-07T12:10:24;2.90;;;1.07;;
25982;SDS011;13773;48.868;10.730;2022-08-07T12:13:51;1.20;;;1.10;;
25982;SDS011;13773;48.868;10.730;2022-08-07T12:15:53;2.07;;;1.10;;
25982;SDS011;13773;48.868;10.730;2022-08-07T12:21:25;1.23;;;1.10;;
25982;SDS011;13773;48.868;10.730;2022-08-07T12:29:37;1.00;;;0.87;;
25982;SDS011;13773;48.868;10.730;2022-08-07T12:32:18;1.33;;;1.10;;
25982;SDS011;13773;48.868;10.730;2022-08-07T12:34:48;1.43;;;1.33;;
25982;SDS011;13773;48.868;10.730;2022-08-07T12:37:16;0.83;;;0.83;;
25982;SDS011;13773;48.868;10.730;2022-08-07T12:39:46;1.40;;;1.00;;
25982;SDS011;13773;48.868;10.730;2022-08-07T12:42:14;1.23;;;1.00;;
25982;SDS011;13773;48.868;10.730;2022-08-07T12:44:46;3.80;;;1.37;;
25982;SDS011;13773;48.868;10.730;2022-08-07T12:49:41;1.30;;;1.20;;
25982;SDS011;13773;48.868;10.730;2022-08-07T12:52:18;1.20;;;1.03;;
25982;SDS011;13773;48.868;10.730;2022-08-07T12:57:31;1.87;;;1.20;;
25982;SDS011;13773;48.868;10.730;2022-08-07T12:59:59;1.20;;;1.10;;
25982;SDS011;13773;48.868;10.730;2022-08-07T13:02:45;1.97;;;1.20;;
25982;SDS011;13773;48.868;10.730;2022-08-07T13:05:30;1.13;;;1.10;;
25982;SDS011;13773;48.868;10.730;2022-08-07T13:08:37;3.83;;;1.30;;
25982;SDS011;13773;48.868;10.730;2022-08-07T13:19:23;1.60;;;0.98;;
25982;SDS011;13773;48.868;10.730;2022-08-07T13:22:07;1.20;;;1.10;;
25982;SDS011;13773;48.868;10.730;2022-08-07T13:24:49;1.27;;;1.17;;
25982;SDS011;13773;48.868;10.730;2022-08-07T13:27:34;1.85;;;0.90;;
25982;SDS011;13773;48.868;10.730;2022-08-07T13:30:22;1.67;;;1.00;;
25982;SDS011;13773;48.868;10.730;2022-08-07T13:33:10;2.33;;;1.20;;
25982;SDS011;13773;48.868;10.730;2022-08-07T13:35:53;1.17;;;1.10;;
25982;SDS011;13773;48.868;10.730;2022-08-07T13:38:31;1.77;;;1.13;;
25982;SDS011;13773;48.868;10.730;2022-08-07T13:41:17;1.10;;;1.00;;
25982;SDS011;13773;48.868;10.730;2022-08-07T13:43:45;1.63;;;1.05;;
25982;SDS011;13773;48.868;10.730;2022-08-07T13:46:14;1.27;;;1.17;;
25982;SDS011;13773;48.868;10.730;2022-08-07T13:48:45;1.33;;;1.20;;
25982;SDS011;13773;48.868;10.730;2022-08-07T13:51:16;1.17;;;1.10;;
25982;SDS011;13773;48.868;10.730;2022-08-07T13:53:45;1.33;;;1.10;;
25982;SDS011;13773;48.868;10.730;2022-08-07T13:56:17;1.27;;;1.17;;
25982;SDS011;13773;48.868;10.730;2022-08-07T13:58:47;1.20;;;1.10;;
25982;SDS011;13773;48.868;10.730;2022-08-07T14:01:26;1.33;;;1.23;;
25982;SDS011;13773;48.868;10.730;2022-08-07T14:04:09;1.40;;;1.30;;
25982;SDS011;13773;48.868;10.730;2022-08-07T14:06:39;1.33;;;1.20;;
25982;SDS011;13773;48.868;10.730;2022-08-07T14:09:08;1.40;;;1.30;;
25982;SDS011;13773;48.868;10.730;2022-08-07T14:11:54;1.20;;;1.10;;
25982;SDS011;13773;48.868;10.730;2022-08-07T14:14:25;1.65;;;1.25;;
25982;SDS011;13773;48.868;10.730;2022-08-07T14:16:58;1.10;;;1.00;;
25982;SDS011;13773;48.868;10.730;2022-08-07T14:21:56;1.27;;;1.17;;
25982;SDS011;13773;48.868;10.730;2022-08-07T14:24:27;2.67;;;0.98;;
25982;SDS011;13773;48.868;10.730;2022-08-07T14:26:57;1.25;;;0.88;;
25982;SDS011;13773;48.868;10.730;2022-08-07T14:29:28;1.15;;;1.05;;
25982;SDS011;13773;48.868;10.730;2022-08-07T14:31:59;1.30;;;1.13;;
25982;SDS011;13773;48.868;10.730;2022-08-07T14:34:29;0.82;;;0.82;;
25982;SDS011;13773;48.868;10.730;2022-08-07T14:37:01;1.95;;;0.85;;
25982;SDS011;13773;48.868;10.730;2022-08-07T14:39:31;1.92;;;1.20;;
25982;SDS011;13773;48.868;10.730;2022-08-07T14:42:02;1.30;;;0.82;;
25982;SDS011;13773;48.868;10.730;2022-08-07T14:44:30;1.75;;;1.05;;
25982;SDS011;13773;48.868;10.730;2022-08-07T14:46:57;1.88;;;1.10;;
25982;SDS011;13773;48.868;10.730;2022-08-07T14:49:30;1.00;;;1.00;;
25982;SDS011;13773;48.868;10.730;2022-08-07T14:51:58;1.40;;;1.00;;
25982;SDS011;13773;48.868;10.730;2022-08-07T14:54:28;1.05;;;1.00;;
25982;SDS011;13773;48.868;10.730;2022-08-07T14:56:55;1.27;;;1.00;;
25982;SDS011;13773;48.868;10.730;2022-08-07T14:59:22;1.40;;;1.05;;
25982;SDS011;13773;48.868;10.730;2022-08-07T15:01:51;1.20;;;1.10;;
25982;SDS011;13773;48.868;10.730;2022-08-07T15:04:20;1.23;;;0.90;;
25982;SDS011;13773;48.868;10.730;2022-08-07T15:06:47;1.48;;;0.80;;
25982;SDS011;13773;48.868;10.730;2022-08-07T15:09:15;1.05;;;0.95;;
25982;SDS011;13773;48.868;10.730;2022-08-07T15:11:44;1.10;;;1.00;;
25982;SDS011;13773;48.868;10.730;2022-08-07T15:14:21;1.50;;;1.40;;
25982;SDS011;13773;48.868;10.730;2022-08-07T15:19:28;3.00;;;1.20;;
25982;SDS011;13773;48.868;10.730;2022-08-07T15:21:59;1.42;;;1.15;;
25982;SDS011;13773;48.868;10.730;2022-08-07T15:24:37;3.00;;;1.00;;
25982;SDS011;13773;48.868;10.730;2022-08-07T15:29:39;0.90;;;0.90;;
25982;SDS011;13773;48.868;10.730;2022-08-07T15:32:07;1.50;;;0.98;;
25982;SDS011;13773;48.868;10.730;2022-08-07T15:34:34;2.00;;;0.80;;
25982;SDS011;13773;48.868;10.730;2022-08-07T15:37:02;1.10;;;1.00;;
25982;SDS011;13773;48.868;10.730;2022-08-07T15:39:33;1.33;;;1.10;;
25982;SDS011;13773;48.868;10.730;2022-08-07T15:42:02;1.58;;;1.10;;
25982;SDS011;13773;48.868;10.730;2022-08-07T15:44:40;1.48;;;1.00;;
25982;SDS011;13773;48.868;10.730;2022-08-07T15:47:09;1.20;;;0.85;;
25982;SDS011;13773;48.868;10.730;2022-08-07T15:49:38;0.90;;;0.90;;
25982;SDS011;13773;48.868;10.730;2022-08-07T15:52:07;1.23;;;0.90;;
25982;SDS011;13773;48.868;10.730;2022-08-07T15:54:36;1.35;;;1.00;;
25982;SDS011;13773;48.868;10.730;2022-08-07T15:57:05;0.77;;;0.77;;
25982;SDS011;13773;48.868;10.730;2022-08-07T15:59:34;1.13;;;1.00;;
25982;SDS011;13773;48.868;10.730;2022-08-07T16:02:03;0.93;;;0.90;;
25982;SDS011;13773;48.868;10.730;2022-08-07T16:04:32;1.08;;;0.80;;
25982;SDS011;13773;48.868;10.730;2022-08-07T16:07:00;2.33;;;1.10;;
25982;SDS011;13773;48.868;10.730;2022-08-07T16:09:40;1.05;;;0.98;;
25982;SDS011;13773;48.868;10.730;2022-08-07T16:18:43;1.38;;;1.00;;
25982;SDS011;13773;48.868;10.730;2022-08-07T16:26:16;1.80;;;1.08;;
25982;SDS011;13773;48.868;10.730;2022-08-07T16:29:06;1.02;;;0.82;;
25982;SDS011;13773;48.868;10.730;2022-08-07T16:31:51;1.15;;;0.88;;
25982;SDS011;13773;48.868;10.730;2022-08-07T16:48:50;0.90;;;0.70;;
25982;SDS011;13773;48.868;10.730;2022-08-07T16:51:28;0.80;;;0.80;;
25982;SDS011;13773;48.868;10.730;2022-08-07T16:57:13;1.58;;;0.80;;
25982;SDS011;13773;48.868;10.730;2022-08-07T17:14:34;2.55;;;0.80;;
25982;SDS011;13773;48.868;10.730;2022-08-07T17:17:12;0.90;;;0.90;;
25982;SDS011;13773;48.868;10.730;2022-08-07T17:19:55;1.42;;;0.70;;
25982;SDS011;13773;48.868;10.730;2022-08-07T17:22:29;0.82;;;0.82;;
25982;SDS011;13773;48.868;10.730;2022-08-07T17:25:06;1.00;;;0.90;;
25982;SDS011;13773;48.868;10.730;2022-08-07T17:30:23;0.75;;;0.75;;
25982;SDS011;13773;48.868;10.730;2022-08-07T17:33:13;1.02;;;0.93;;
25982;SDS011;13773;48.868;10.730;2022-08-07T17:35:54;1.38;;;1.10;;
25982;SDS011;13773;48.868;10.730;2022-08-07T17:41:07;0.88;;;0.88;;
25982;SDS011;13773;48.868;10.730;2022-08-07T17:43:38;1.00;;;1.00;;
25982;SDS011;13773;48.868;10.730;2022-08-07T17:46:08;0.95;;;0.90;;
25982;SDS011;13773;48.868;10.730;2022-08-07T17:51:49;1.00;;;0.90;;
25982;SDS011;13773;48.868;10.730;2022-08-07T17:54:34;1.58;;;1.20;;
25982;SDS011;13773;48.868;10.730;2022-08-07T17:57:21;0.88;;;0.85;;
25982;SDS011;13773;48.868;10.730;2022-08-07T18:00:07;0.82;;;0.82;;
25982;SDS011;13773;48.868;10.730;2022-08-07T18:10:42;1.13;;;0.95;;
25982;SDS011;13773;48.868;10.730;2022-08-07T18:16:46;1.63;;;1.20;;
25982;SDS011;13773;48.868;10.730;2022-08-07T18:19:14;1.10;;;1.00;;
25982;SDS011;13773;48.868;10.730;2022-08-07T18:21:41;1.27;;;1.00;;
25982;SDS011;13773;48.868;10.730;2022-08-07T18:24:13;1.13;;;0.87;;
25982;SDS011;13773;48.868;10.730;2022-08-07T18:38:19;1.87;;;1.20;;
25982;SDS011;13773;48.868;10.730;2022-08-07T18:46:38;0.80;;;0.80;;
25982;SDS011;13773;48.868;10.730;2022-08-07T18:49:19;0.80;;;0.80;;
25982;SDS011;13773;48.868;10.730;2022-08-07T19:00:48;2.07;;;1.20;;
25982;SDS011;13773;48.868;10.730;2022-08-07T19:06:40;1.70;;;1.10;;
25982;SDS011;13773;48.868;10.730;2022-08-07T19:14:12;0.83;;;0.80;;